• Join FlightAware (Why Join?)
  • Login
  • US Flag 
04:35AM EST


 

Airport Tracker/Info


-or-


 

Live Flight TrackerFlight Track Log ✈ SWA1969 ✈ 15-Apr-2013 ✈ KMDW - KPHX

Flight Track Log - Related Links

Times and Time Zones

All times are in EDT time to prevent confusion due to time zone crossing. See the SWA1969 flight status page for this flight to view local times or setup timezone preferences in your user account.

Time Position Orientation Groundspeed Altitude Reporting Facility
EDT Latitude Longitude Course Direction KTS MPH feet Rate Location/Type
01:23PM 41.7667 -87.8000 255° West 170 196 2,600  Level Chicago TRACON
01:24PM 41.7500 -87.8833 255° West 220 253 2,900 360 Climbing Chicago TRACON
01:25PM 41.7600 -87.9142 294° West 224 258 3,200 900 Climbing Chicago Center
01:26PM 41.7836 -87.9983 291° West 240 276 4,400 1,320 Climbing Chicago Center
01:27PM 41.7844 -88.1100 271° West 250 288 6,000 1,020 Climbing Chicago Center
01:28PM 41.7878 -88.2025 273° West 251 289 6,600 1,680 Climbing Chicago Center
01:29PM 41.7928 -88.2975 274° West 256 295 9,500 2,640 Climbing Chicago Center
01:30PM 41.7953 -88.3981 272° West 270 311 12,100 2,100 Climbing Chicago Center
01:31PM 41.7964 -88.5306 271° West 295 339 13,900 1,500 Climbing Chicago Center
01:32PM 41.7711 -88.6442 253° West 317 365 15,200 2,220 Climbing Chicago Center
01:33PM 41.7478 -88.7539 254° West 312 359 18,500 2,700 Climbing Chicago Center
01:34PM 41.7231 -88.8647 253° West 312 359 20,900 2,220 Climbing Chicago Center
01:35PM 41.6994 -88.9764 254° West 315 362 23,200 1,500 Climbing Chicago Center
01:36PM 41.6742 -89.0933 254° West 325 374 24,000 900 Climbing Chicago Center
01:37PM 41.6389 -89.2531 254° West 376 433 25,100 1,200 Climbing Chicago Center
01:38PM 41.6078 -89.3908 253° West 388 447 26,500 1,500 Climbing Chicago Center
01:39PM 41.5744 -89.5275 252° West 391 450 28,300 1,620 Climbing Chicago Center
01:40PM 41.5381 -89.6547 249° West 383 441 29,900 1,620 Climbing Chicago Center
01:41PM 41.4942 -89.8114 250° West 380 437 31,700 1,500 Climbing Chicago Center
01:42PM 41.4575 -89.9397 249° West 375 432 33,100 1,200 Climbing Chicago Center
01:43PM 41.4214 -90.0667 249° West 371 427 34,200 1,020 Climbing Chicago Center
01:44PM 41.3850 -90.1925 249° West 368 423 35,300 840 Climbing Chicago Center
01:45PM 41.3494 -90.3181 249° West 366 421 36,000 300 Climbing Chicago Center
01:46PM 41.3131 -90.4436 249° West 366 421 36,000  Level Chicago Center
01:47PM 41.2692 -90.5944 249° West 367 422 36,000  Level Chicago Center
01:49PM 41.2311 -90.7222 248° West 371 427 36,000  Level Chicago Center
01:50PM 41.1942 -90.8475 249° West 367 422 36,000  Level Chicago Center
01:51PM 41.1583 -90.9708 249° West 361 415 36,000  Level Chicago Center
01:52PM 41.1214 -91.0950 248° West 362 417 36,000  Level Chicago Center
01:53PM 41.0839 -91.2181 248° West 362 417 36,000  Level Chicago Center
01:54PM 41.0397 -91.3650 248° West 360 414 36,000  Level Chicago Center
01:55PM 41.0025 -91.4867 248° West 357 411 36,000  Level Chicago Center
01:56PM 40.9703 -91.5939 248° West 357 411 36,000  Level Chicago Center
01:57PM 40.9261 -91.7414 248° West 362 417 36,000  Level Chicago Center
01:58PM 40.8886 -91.8633 248° West 361 415 36,000  Level Chicago Center
01:59PM 40.8506 -91.9864 248° West 364 419 36,000  Level Chicago Center
02:00PM 40.8125 -92.1094 248° West 366 421 36,000  Level Chicago Center
02:01PM 40.7742 -92.2311 247° West 364 419 36,000  Level Chicago Center
02:02PM 40.7286 -92.3761 248° West 361 415 36,000  Level Chicago Center
02:03PM 40.6914 -92.4978 248° West 363 418 36,000  Level Chicago Center
02:04PM 40.6531 -92.6169 247° West 361 415 36,000  Level Chicago Center
02:05PM 40.6158 -92.7361 248° West 359 413 36,000  Level Chicago Center
02:06PM 40.5928 -92.8078 247° West 358 412 36,000  Level Kansas City Center
02:07PM 40.5567 -92.9233 248° West 357 411 36,000  Level Kansas City Center
02:08PM 40.5167 -93.0458 247° West 360 414 36,000  Level Kansas City Center
02:09PM 40.4778 -93.1675 247° West 364 419 36,000  Level Kansas City Center
02:10PM 40.4306 -93.3131 247° West 365 420 36,000  Level Kansas City Center
02:11PM 40.3906 -93.4356 247° West 368 423 36,000  Level Kansas City Center
02:12PM 40.3519 -93.5561 247° West 364 419 36,000  Level Kansas City Center
02:13PM 40.3119 -93.6781 247° West 365 420 36,000  Level Kansas City Center
02:14PM 40.2717 -93.7983 246° West 365 420 36,000  Level Kansas City Center
02:15PM 40.2242 -93.9431 247° West 365 420 36,000  Level Kansas City Center
02:16PM 40.1850 -94.0642 247° West 365 420 36,000  Level Kansas City Center
02:17PM 40.1417 -94.1886 246° West 363 418 36,000  Level Kansas City Center
02:18PM 40.1031 -94.3042 246° West 363 418 36,000  Level Kansas City Center
02:19PM 40.0583 -94.4378 246° West 363 418 36,000  Level Kansas City Center
02:20PM 40.0194 -94.5531 246° West 362 417 36,000  Level Kansas City Center
02:21PM 39.9742 -94.6881 246° West 363 418 36,000  Level Kansas City Center
02:22PM 39.9347 -94.8036 246° West 364 419 36,000  Level Kansas City Center
02:23PM 39.8886 -94.9386 246° West 365 420 36,000  Level Kansas City Center
02:24PM 39.8486 -95.0550 246° West 368 423 36,000  Level Kansas City Center
02:25PM 39.8017 -95.1908 246° West 369 425 36,000  Level Kansas City Center
02:26PM 39.7625 -95.3058 246° West 367 422 36,000  Level Kansas City Center
02:27PM 39.7156 -95.4392 245° Southwest 366 421 36,000  Level Kansas City Center
02:28PM 39.6756 -95.5547 246° West 367 422 36,000  Level Kansas City Center
02:29PM 39.6286 -95.6889 246° West 368 423 36,000  Level Kansas City Center
02:30PM 39.5878 -95.8031 245° Southwest 367 422 36,000  Level Kansas City Center
02:31PM 39.5389 -95.9383 245° Southwest 370 426 36,000  Level Kansas City Center
02:32PM 39.4983 -96.0531 245° Southwest 368 423 36,000  Level Kansas City Center
02:33PM 39.4528 -96.1797 245° Southwest 368 423 36,000  Level Kansas City Center
02:34PM 39.4086 -96.2992 244° Southwest 369 425 36,000  Level Kansas City Center
02:35PM 39.3661 -96.4203 246° West 370 426 36,000  Level Kansas City Center
02:36PM 39.3178 -96.5506 244° Southwest 370 426 36,000  Level Kansas City Center
02:38PM 39.2769 -96.6661 245° Southwest 370 426 36,000  Level Kansas City Center
02:39PM 39.2281 -96.7992 245° Southwest 369 425 36,000  Level Kansas City Center
02:40PM 39.1864 -96.9136 245° Southwest 369 425 36,000  Level Kansas City Center
02:41PM 39.1369 -97.0467 244° Southwest 369 425 36,000  Level Kansas City Center
02:42PM 39.0947 -97.1606 244° Southwest 369 425 36,000  Level Kansas City Center
02:43PM 39.0478 -97.2931 246° West 367 422 36,000  Level Kansas City Center
02:44PM 39.0056 -97.4078 245° Southwest 369 425 36,000  Level Kansas City Center
02:45PM 38.9561 -97.5397 244° Southwest 368 423 36,000  Level Kansas City Center
02:46PM 38.9050 -97.6458 238° Southwest 366 421 36,000  Level Kansas City Center
02:47PM 38.8181 -97.7469 222° Southwest 375 432 36,000  Level Kansas City Center
02:48PM 38.7442 -97.8342 223° Southwest 378 435 36,000  Level Kansas City Center
02:49PM 38.6681 -97.9233 222° Southwest 383 441 36,000  Level Kansas City Center
02:50PM 38.5903 -98.0136 222° Southwest 380 437 36,000  Level Kansas City Center
02:51PM 38.4967 -98.1233 223° Southwest 381 438 36,000  Level Kansas City Center
02:52PM 38.4197 -98.2136 223° Southwest 379 436 36,000  Level Kansas City Center
02:53PM 38.3422 -98.3039 222° Southwest 379 436 36,000  Level Kansas City Center
02:54PM 38.2642 -98.3944 222° Southwest 380 437 36,000  Level Kansas City Center
02:55PM 38.1856 -98.4833 222° Southwest 381 438 36,000  Level Kansas City Center
02:56PM 38.1081 -98.5725 222° Southwest 378 435 36,000  Level Kansas City Center
02:57PM 38.0136 -98.6808 222° Southwest 382 440 36,000  Level Kansas City Center
02:58PM 37.9356 -98.7700 222° Southwest 380 437 36,000  Level Kansas City Center
02:59PM 37.8578 -98.8578 222° Southwest 377 434 36,000  Level Kansas City Center
03:00PM 37.7811 -98.9472 223° Southwest 376 433 36,000  Level Kansas City Center
03:01PM 37.7025 -99.0350 221° Southwest 377 434 36,000  Level Kansas City Center
03:02PM 37.6256 -99.1219 222° Southwest 375 432 36,000  Level Kansas City Center
03:03PM 37.5322 -99.2261 222° Southwest 374 430 36,000  Level Kansas City Center
03:04PM 37.4539 -99.3147 222° Southwest 377 434 36,000  Level Kansas City Center
03:05PM 37.3747 -99.4019 221° Southwest 378 435 36,000  Level Kansas City Center
03:06PM 37.2889 -99.4983 222° Southwest 380 437 36,000  Level Kansas City Center
03:07PM 37.2133 -99.5817 221° Southwest 379 436 36,000  Level Kansas City Center
03:08PM 37.1236 -99.6808 221° Southwest 380 437 36,000  Level Kansas City Center
03:10PM 37.0478 -99.7642 221° Southwest 381 438 36,000  Level Kansas City Center
03:11PM 36.9708 -99.8486 221° Southwest 383 441 36,000  Level Kansas City Center
03:12PM 36.8892 -99.9383 221° Southwest 387 445 36,000  Level Kansas City Center
03:13PM 36.7919 -100.0450 221° Southwest 388 447 36,000  Level Kansas City Center
03:14PM 36.7103 -100.1342 221° Southwest 389 448 36,000  Level Kansas City Center
03:15PM 36.6292 -100.2211 221° Southwest 387 445 36,000  Level Kansas City Center
03:16PM 36.5469 -100.3108 221° Southwest 390 449 36,000  Level Kansas City Center
03:17PM 36.4631 -100.4006 221° Southwest 385 443 36,000  Level Kansas City Center
03:18PM 36.3856 -100.4842 221° Southwest 386 444 36,000  Level Kansas City Center
03:19PM 36.3039 -100.5719 221° Southwest 388 447 36,000  Level Albuquerque Center
03:20PM 36.2217 -100.6594 221° Southwest 389 448 36,000  Level Albuquerque Center
03:21PM 36.1397 -100.7469 221° Southwest 389 448 36,000  Level Albuquerque Center
03:22PM 36.0569 -100.8350 221° Southwest 390 449 36,000  Level Albuquerque Center
03:23PM 35.9744 -100.9222 221° Southwest 390 449 36,000  Level Albuquerque Center
03:24PM 35.8831 -101.0214 221° Southwest 392 451 36,000  Level Albuquerque Center
03:25PM 35.8006 -101.1092 221° Southwest 392 451 36,000  Level Albuquerque Center
03:26PM 35.7169 -101.1953 220° Southwest 392 451 36,000  Level Albuquerque Center
03:27PM 35.6353 -101.2822 221° Southwest 391 450 36,000  Level Albuquerque Center
03:28PM 35.5356 -101.3864 220° Southwest 392 451 36,000  Level Albuquerque Center
03:29PM 35.4617 -101.4647 221° Southwest 390 449 36,000  Level Albuquerque Center
03:30PM 35.4047 -101.5681 236° Southwest 383 441 36,000  Level Albuquerque Center
03:31PM 35.4003 -101.7272 268° West 385 443 36,000  Level Albuquerque Center
03:32PM 35.3903 -101.8581 265° West 383 441 36,000  Level Albuquerque Center
03:33PM 35.3750 -101.9894 262° West 383 441 36,000  Level Albuquerque Center
03:34PM 35.3653 -102.1189 265° West 383 441 36,000  Level Albuquerque Center
03:35PM 35.3556 -102.2492 265° West 386 444 36,000  Level Albuquerque Center
03:36PM 35.3453 -102.3806 265° West 388 447 36,000  Level Albuquerque Center
03:37PM 35.3347 -102.5122 264° West 389 448 36,000  Level Albuquerque Center
03:38PM 35.3225 -102.6739 265° West 391 450 36,000  Level Albuquerque Center
03:39PM 35.3122 -102.8069 265° West 390 449 36,000  Level Albuquerque Center
03:40PM 35.3019 -102.9394 265° West 389 448 36,000  Level Albuquerque Center
03:41PM 35.2906 -103.0714 264° West 387 445 36,000  Level Albuquerque Center
03:42PM 35.2808 -103.2025 265° West 386 444 36,000  Level Albuquerque Center
03:43PM 35.2692 -103.3333 264° West 384 442 36,000  Level Albuquerque Center
03:44PM 35.2583 -103.4642 264° West 383 441 36,000  Level Albuquerque Center
03:45PM 35.2464 -103.5950 264° West 384 442 36,000  Level Albuquerque Center
03:47PM 35.2336 -103.7481 264° West 385 443 36,000  Level Albuquerque Center
03:48PM 35.2217 -103.8783 264° West 383 441 36,000  Level Albuquerque Center
03:49PM 35.2119 -103.9956 264° West 383 441 36,000  Level Albuquerque Center
03:50PM 35.1997 -104.1247 263° West 383 441 36,000  Level Albuquerque Center
03:51PM 35.1853 -104.2794 264° West 384 442 36,000  Level Albuquerque Center
03:52PM 35.1744 -104.4108 264° West 387 445 36,000  Level Albuquerque Center
03:53PM 35.1617 -104.5417 263° West 389 448 36,000  Level Albuquerque Center
03:54PM 35.1464 -104.6792 262° West 394 453 36,000  Level Albuquerque Center
03:55PM 35.1342 -104.8122 264° West 392 451 36,000  Level Albuquerque Center
03:56PM 35.1208 -104.9439 263° West 389 448 36,000  Level Albuquerque Center
03:57PM 35.1094 -105.0744 264° West 385 443 36,000  Level Albuquerque Center
03:58PM 35.1075 -105.2278 269° West 382 440 36,000  Level Albuquerque Center
03:59PM 35.1064 -105.3589 269° West 383 441 36,000  Level Albuquerque Center
04:00PM 35.1036 -105.4886 269° West 381 438 36,000  Level Albuquerque Center
04:01PM 35.1000 -105.6181 268° West 379 436 36,000  Level Albuquerque Center
04:02PM 35.0983 -105.7475 269° West 378 435 36,000  Level Albuquerque Center
04:03PM 35.0936 -105.8781 268° West 381 438 36,000  Level Albuquerque Center
04:04PM 35.0894 -106.0067 268° West 380 437 36,000  Level Albuquerque Center
04:05PM 35.0872 -106.1386 269° West 387 445 36,000  Level Albuquerque Center
04:06PM 35.0825 -106.2694 268° West 387 445 36,000  Level Albuquerque Center
04:07PM 35.0781 -106.4261 268° West 386 444 36,000  Level Albuquerque Center
04:08PM 35.0744 -106.5683 268° West 387 445 36,000  Level Albuquerque Center
04:09PM 35.0683 -106.6950 267° West 391 450 36,000  Level Albuquerque Center
04:10PM 35.0644 -106.8197 268° West 385 443 36,000  Level Albuquerque Center
04:11PM 35.0506 -106.9603 263° West 376 433 36,000  Level Albuquerque Center
04:12PM 35.0386 -107.0842 263° West 382 440 36,000  Level Albuquerque Center
04:13PM 35.0231 -107.2156 262° West 386 444 36,000  Level Albuquerque Center
04:14PM 35.0083 -107.3447 262° West 387 445 36,000  Level Albuquerque Center
04:15PM 34.9944 -107.4731 263° West 383 441 36,000  Level Albuquerque Center
04:16PM 34.9783 -107.6253 263° West 379 436 36,000  Level Albuquerque Center
04:18PM 34.9633 -107.7525 262° West 378 435 36,000  Level Albuquerque Center
04:19PM 34.9492 -107.8847 263° West 385 443 36,000  Level Albuquerque Center
04:20PM 34.9353 -108.0097 262° West 387 445 36,000  Level Albuquerque Center
04:21PM 34.9178 -108.1589 262° West 394 453 36,000  Level Albuquerque Center
04:22PM 34.9033 -108.2856 262° West 395 455 36,000  Level Albuquerque Center
04:23PM 34.8858 -108.4331 262° West 394 453 36,000  Level Albuquerque Center
04:24PM 34.8714 -108.5594 262° West 393 452 36,000  Level Albuquerque Center
04:25PM 34.8542 -108.7069 262° West 393 452 36,000  Level Albuquerque Center
04:26PM 34.8381 -108.8308 261° West 389 448 36,000  Level Albuquerque Center
04:27PM 34.8206 -108.9753 262° West 386 444 36,000  Level Albuquerque Center
04:28PM 34.8061 -109.1003 262° West 388 447 36,000  Level Albuquerque Center
04:29PM 34.7903 -109.2247 261° West 388 447 36,000  Level Albuquerque Center
04:30PM 34.7728 -109.3706 262° West 389 448 36,000  Level Albuquerque Center
04:31PM 34.7558 -109.4942 261° West 389 448 36,000 -180 Level Albuquerque Center
04:32PM 34.7364 -109.6381 261° West 386 444 35,700 -660 Descending Albuquerque Center
04:33PM 34.7197 -109.7653 261° West 392 451 34,700 -1,020 Descending Albuquerque Center
04:34PM 34.6892 -109.9089 256° West 400 460 33,600 -1,020 Descending Albuquerque Center
04:35PM 34.6447 -110.0278 246° West 403 464 32,700 -780 Descending Albuquerque Center
04:36PM 34.5969 -110.1675 247° West 408 470 32,000 -360 Descending Albuquerque Center
04:37PM 34.5556 -110.2828 246° West 395 455 32,000  Level Albuquerque Center
04:38PM 34.5069 -110.3894 241° Southwest 382 440 32,000 -780 Level Albuquerque Center
04:39PM 34.4628 -110.5217 248° West 388 447 30,500 -1,920 Descending Albuquerque Center
04:40PM 34.4206 -110.6367 246° West 377 434 28,100 -2,160 Descending Albuquerque Center
04:41PM 34.3733 -110.7458 242° Southwest 370 426 26,100 -1,920 Descending Albuquerque Center
04:42PM 34.3156 -110.8447 235° Southwest 368 423 24,200 -2,040 Descending Albuquerque Center
04:43PM 34.2364 -110.9478 227° Southwest 352 405 21,900 -1,920 Descending Albuquerque Center
04:44PM 34.1739 -111.0294 227° Southwest 339 390 20,300 -1,500 Descending Albuquerque Center
04:45PM 34.1142 -111.1058 227° Southwest 325 374 18,800 -1,680 Descending Albuquerque Center
04:46PM 34.0572 -111.1797 227° Southwest 313 360 16,900 -1,680 Descending Albuquerque Center
04:47PM 34.0022 -111.2514 227° Southwest 300 345 15,400 -1,500 Descending Albuquerque Center
04:48PM 33.9492 -111.3172 226° Southwest 278 320 13,900 -1,500 Descending Albuquerque Center
04:50PM 33.8978 -111.3847 227° Southwest 273 314 12,400 -1,440 Descending Albuquerque Center
04:51PM 33.8306 -111.4494 219° Southwest 255 293 11,000 -840 Descending Albuquerque Center
04:52PM 33.7722 -111.4989 215° Southwest 255 293 10,700 -720 Descending Albuquerque Center
04:53PM 33.7139 -111.5500 216° Southwest 257 296 9,600 -1,020 Descending Albuquerque Center
04:54PM 33.6592 -111.5964 215° Southwest 242 278 8,600 -1,020 Descending Albuquerque Center
04:55PM 33.6061 -111.6411 215° Southwest 234 269 7,500 -1,020 Descending Albuquerque Center
04:56PM 33.5528 -111.6844 214° Southwest 232 267 6,500 -1,020 Descending Albuquerque Center
04:57PM 33.5017 -111.7283 216° Southwest 227 261 5,500 -900 Descending Albuquerque Center
04:58PM 33.4569 -111.7789 223° Southwest 221 254 4,700 -840 Descending Albuquerque Center
04:59PM 33.4411 -111.8456 254° West 176 203 3,800 -960 Descending Albuquerque Center
05:00PM 33.4411 -111.8983 270° West 160 184 2,800 -960 Descending Albuquerque Center
05:01PM 33.4417 -111.9467 271° West 155 178 1,900 -840 Descending Albuquerque Center
05:02PM 33.4397 -111.9983 267° West 155 178 1,100 -780 Descending Albuquerque Center
05:04PM 33.4343 -112.0116 116° Southeast  Level Estimated